首页
METAR-TAF:

METAR-TAF

机场 :

Ely Airport (Yelland Field)

伊利, 内华达州, 美国

纬度: 39-17-42N, 经度: 114-50-43W, 海拔: 1907米

当前天气观测

该预报发布于23分钟前的01:53 UTC
静风
温度 29°C
湿度 23%
气压 1025 hPa
能見度: 16.1公里
天空无云

METAR: KELY 210153Z AUTO 00000KT 10SM CLR 29/06 A3027 RMK AO2 SLP148 T02890061

时间: 19:16 (02:16 UTC)

预报

该预报发布于2小时和56分钟前的23:20 UTC
预报有效从21日的 00点(UTC)到 21日的 24点(UTC)
风速10节,风向西,有时为20节阵风
能見度: 10公里
多云层高于10000英尺, 积雨云.
附近有雷暴
从 21日的 0300点(UTC)
风速9节,风向南转西南
能見度: 10公里
多云层高于10000英尺
附近有阵雨
从 21日的 0600点(UTC)
风速8节,风向
能見度: 10公里
散云层高于10000英尺
从 21日的 1900点(UTC)
风速10节,风向西转西北,有时为20节阵风
能見度: 10公里
多云层高于10000英尺, 积雨云.
附近有雷暴,

TAF: KELY 202320Z 2100/2124 27010G20KT P6SM VCTS BKN100CB FM210300 20009KT P6SM VCSH BKN100 FM210600 18008KT P6SM SCT100 FM211900 30010G20KT P6SM VCTS BKN100CB

超过4000个机场的气象观测和天气预报(METAR&TAF报告)。

可查询的气象台以黄色和红色小点在地图上表示。

将鼠标移到小点上方,可查看气象台名称。

然后点击查看天气观测和预报。

如需切换地图:点击带黑十字的绿色按钮放大地图;点击带横线的绿色按钮缩小地图;或者点击绿色箭头查看邻近地区的地图。


METAR-TAF: